createdAt,value
2022-08-22T00:00:51.578Z,96.25
2022-08-22T00:01:52.426Z,96.35
2022-08-22T00:02:43.756Z,93.95
2022-08-22T00:02:47.979Z,85.24
2022-08-22T00:02:58.750Z,93.68
2022-08-22T00:03:10.808Z,95.39
2022-08-22T00:03:17.512Z,96.55
2022-08-22T00:03:52.548Z,96.45
2022-08-22T00:04:51.539Z,96.66
2022-08-22T00:05:51.527Z,97.26
2022-08-22T00:06:51.520Z,97.47
2022-08-22T00:07:51.501Z,96.96
2022-08-22T00:08:51.503Z,96.75
2022-08-22T00:09:51.479Z,96.96
2022-08-22T00:10:51.891Z,96.96
2022-08-22T00:11:51.462Z,97.16
2022-08-22T00:12:51.452Z,97.26
2022-08-22T00:14:01.305Z,97.26
2022-08-22T00:14:53.227Z,97.16
2022-08-22T00:15:51.473Z,97.26
2022-08-22T00:16:51.415Z,97.36
2022-08-22T00:17:51.394Z,97.26
2022-08-22T00:18:52.202Z,97.06
2022-08-22T00:19:52.184Z,96.96
2022-08-22T00:20:51.364Z,97.16
2022-08-22T00:21:51.345Z,97.06
2022-08-22T00:22:51.353Z,97.16
2022-08-22T00:23:52.136Z,97.26
2022-08-22T00:24:51.820Z,97.16
2022-08-22T00:25:51.336Z,97.16
2022-08-22T00:26:51.308Z,97.16
2022-08-22T00:27:52.086Z,97.06
2022-08-22T00:28:52.088Z,96.96
2022-08-22T00:29:51.265Z,96.86
2022-08-22T00:30:51.258Z,96.75
2022-08-22T00:31:51.246Z,96.86
2022-08-22T00:32:52.046Z,96.86
2022-08-22T00:33:51.223Z,96.96
2022-08-22T00:34:51.210Z,97.06
2022-08-22T00:35:51.200Z,97.06
2022-08-22T00:36:51.211Z,97.06
2022-08-22T00:37:51.178Z,97.26
2022-08-22T00:38:51.170Z,97.36
2022-08-22T00:39:51.255Z,97.71
2022-08-22T00:40:51.152Z,98.18
2022-08-22T00:41:51.943Z,98.18
2022-08-22T00:42:51.130Z,98.28
2022-08-22T00:43:51.110Z,98.38
2022-08-22T00:44:51.110Z,98.38
2022-08-22T00:45:51.084Z,98.38
2022-08-22T00:46:51.899Z,98.28
2022-08-22T00:47:51.063Z,98.18
2022-08-22T00:48:51.153Z,97.87
2022-08-22T00:49:51.057Z,97.92
2022-08-22T00:50:51.864Z,97.83
2022-08-22T00:51:51.834Z,97.52
2022-08-22T00:52:51.024Z,97.62
2022-08-22T00:53:51.005Z,97.52
2022-08-22T00:54:50.995Z,97.42
2022-08-22T00:55:51.289Z,97.32
2022-08-22T00:56:51.787Z,97.42
2022-08-22T00:57:50.967Z,97.42
2022-08-22T00:58:50.954Z,97.36
2022-08-22T00:59:51.157Z,97.06
2022-08-22T01:00:51.794Z,96.86
2022-08-22T01:01:50.908Z,96.55
2022-08-22T01:02:52.678Z,96.55
2022-08-22T01:03:50.888Z,96.86
2022-08-22T01:04:51.707Z,97.06
2022-08-22T01:05:51.688Z,97.06
2022-08-22T01:06:50.879Z,97.06
2022-08-22T01:07:50.849Z,97.26
2022-08-22T01:08:51.037Z,97.26
2022-08-22T01:09:51.641Z,97.41
2022-08-22T01:10:50.828Z,97.51
2022-08-22T01:11:50.813Z,97.61
2022-08-22T01:12:50.802Z,97.81
2022-08-22T01:13:50.792Z,97.71
2022-08-22T01:14:51.571Z,97.71
2022-08-22T01:15:50.761Z,98.02
2022-08-22T01:16:50.762Z,98.02
2022-08-22T01:17:50.733Z,98.02
2022-08-22T01:18:50.765Z,98.12
2022-08-22T01:19:50.733Z,98.02
2022-08-22T01:20:50.714Z,98.12
2022-08-22T01:21:50.694Z,98.12
2022-08-22T01:22:50.692Z,98.12
2022-08-22T01:23:50.674Z,98.12
2022-08-22T01:24:50.674Z,98.12
2022-08-22T01:25:50.895Z,98.12
2022-08-22T01:26:50.645Z,98.12
2022-08-22T01:27:50.632Z,98.22
2022-08-22T01:28:50.636Z,98.22
2022-08-22T01:29:50.624Z,98.22
2022-08-22T01:30:50.605Z,98.32
2022-08-22T01:31:50.816Z,98.43
2022-08-22T01:32:50.578Z,98.63
2022-08-22T01:33:51.588Z,98.73
2022-08-22T01:34:50.559Z,98.73
2022-08-22T01:35:50.547Z,98.73
2022-08-22T01:36:50.537Z,98.83
2022-08-22T01:37:50.519Z,98.83
2022-08-22T01:38:50.510Z,98.83
2022-08-22T01:39:50.649Z,98.63
2022-08-22T01:40:53.789Z,98.63
2022-08-22T01:41:50.489Z,98.63
2022-08-22T01:42:50.471Z,98.52
2022-08-22T01:43:59.846Z,98.22
2022-08-22T01:44:51.761Z,98.32
2022-08-22T01:45:50.443Z,98.32
2022-08-22T01:46:50.431Z,98.02
2022-08-22T01:47:50.408Z,98.02
2022-08-22T01:48:50.403Z,97.81
2022-08-22T01:49:50.403Z,97.61
2022-08-22T01:50:50.384Z,97.51
2022-08-22T01:51:50.372Z,97.61
2022-08-22T01:52:50.364Z,97.41
2022-08-22T01:53:50.453Z,97.41
2022-08-22T01:54:51.162Z,97.26
2022-08-22T01:55:50.345Z,97.41
2022-08-22T01:56:50.314Z,97.47
2022-08-22T01:57:50.295Z,97.47
2022-08-22T01:58:50.305Z,97.36
2022-08-22T01:59:51.077Z,97.36
2022-08-22T02:00:50.290Z,97.47
2022-08-22T02:01:50.256Z,97.47
2022-08-22T02:02:50.257Z,97.26
2022-08-22T02:03:51.053Z,97.26
2022-08-22T02:04:51.047Z,97.26
2022-08-22T02:05:50.215Z,97.47
2022-08-22T02:06:50.206Z,97.16
2022-08-22T02:07:50.238Z,97.26
2022-08-22T02:08:50.219Z,97.36
2022-08-22T02:09:50.178Z,97.47
2022-08-22T02:10:50.190Z,97.47
2022-08-22T02:11:50.147Z,97.51
2022-08-22T02:12:50.952Z,97.51
2022-08-22T02:13:50.891Z,97.61
2022-08-22T02:14:50.120Z,97.81
2022-08-22T02:15:50.108Z,97.81
2022-08-22T02:16:50.336Z,97.71
2022-08-22T02:17:50.902Z,97.71
2022-08-22T02:18:50.080Z,97.81
2022-08-22T02:19:50.061Z,98.12
2022-08-22T02:20:50.532Z,98.02
2022-08-22T02:21:50.413Z,98.02
2022-08-22T02:22:50.042Z,98.02
2022-08-22T02:23:50.018Z,98.02
2022-08-22T02:24:50.012Z,98.12
2022-08-22T02:25:50.004Z,98.22
2022-08-22T02:26:50.015Z,98.22
2022-08-22T02:27:49.973Z,98.12
2022-08-22T02:28:57.433Z,98.12
2022-08-22T02:29:50.966Z,98.02
2022-08-22T02:30:49.945Z,98.02
2022-08-22T02:31:49.928Z,98.02
2022-08-22T02:32:49.930Z,98.22
2022-08-22T02:33:49.907Z,98.43
2022-08-22T02:34:49.915Z,98.43
2022-08-22T02:35:49.888Z,98.52
2022-08-22T02:36:49.890Z,98.43
2022-08-22T02:37:50.678Z,98.73
2022-08-22T02:38:49.877Z,98.63
2022-08-22T02:39:49.932Z,98.73
2022-08-22T02:40:49.848Z,98.73
2022-08-22T02:41:49.839Z,98.73
2022-08-22T02:42:49.819Z,98.52
2022-08-22T02:43:49.806Z,98.52
2022-08-22T02:44:49.799Z,98.43
2022-08-22T02:45:49.779Z,98.22
2022-08-22T02:46:49.779Z,98.22
2022-08-22T02:47:49.860Z,98.43
2022-08-22T02:48:49.753Z,98.52
2022-08-22T02:49:49.759Z,98.63
2022-08-22T02:50:49.731Z,98.83
2022-08-22T02:51:49.712Z,98.83
2022-08-22T02:52:49.711Z,98.73
2022-08-22T02:53:49.708Z,98.73
2022-08-22T02:54:49.694Z,98.73
2022-08-22T02:55:49.670Z,98.73
2022-08-22T02:56:49.664Z,98.77
2022-08-22T02:57:49.674Z,98.88
2022-08-22T02:58:49.676Z,98.77
2022-08-22T02:59:49.636Z,98.68
2022-08-22T03:00:49.683Z,98.57
2022-08-22T03:01:49.606Z,98.47
2022-08-22T03:02:49.605Z,98.47
2022-08-22T03:03:49.583Z,98.68
2022-08-22T03:04:49.662Z,98.68
2022-08-22T03:05:49.566Z,98.47
2022-08-22T03:06:49.556Z,98.47
2022-08-22T03:07:49.557Z,98.47
2022-08-22T03:08:51.031Z,98.16
2022-08-22T03:09:49.530Z,98.16
2022-08-22T03:10:49.519Z,98.27
2022-08-22T03:11:49.509Z,98.37
2022-08-22T03:12:52.732Z,98.37
2022-08-22T03:13:49.478Z,98.37
2022-08-22T03:14:49.469Z,98.27
2022-08-22T03:15:49.699Z,98.07
2022-08-22T03:16:49.450Z,98.16
2022-08-22T03:17:49.430Z,98.07
2022-08-22T03:18:49.422Z,98.27
2022-08-22T03:19:49.419Z,98.37
2022-08-22T03:20:49.403Z,98.37
2022-08-22T03:21:49.901Z,98.37
2022-08-22T03:22:49.381Z,98.27
2022-08-22T03:23:49.372Z,98.27
2022-08-22T03:24:49.364Z,98.27
2022-08-22T03:25:49.352Z,98.37
2022-08-22T03:26:49.343Z,98.37
2022-08-22T03:27:50.077Z,98.47
2022-08-22T03:28:59.945Z,98.68
2022-08-22T03:29:50.294Z,98.57
2022-08-22T03:30:49.296Z,98.52
2022-08-22T03:31:49.275Z,98.41
2022-08-22T03:32:49.276Z,98.32
2022-08-22T03:33:49.255Z,98.32
2022-08-22T03:34:49.359Z,98.41
2022-08-22T03:35:49.237Z,98.52
2022-08-22T03:36:49.244Z,98.52
2022-08-22T03:37:49.215Z,98.52
2022-08-22T03:38:49.205Z,98.52
2022-08-22T03:39:49.250Z,98.52
2022-08-22T03:40:49.190Z,98.52
2022-08-22T03:41:49.167Z,98.52
2022-08-22T03:42:49.176Z,98.52
2022-08-22T03:43:49.148Z,98.56
2022-08-22T03:44:49.148Z,98.46
2022-08-22T03:45:49.131Z,98.36
2022-08-22T03:46:49.137Z,98.46
2022-08-22T03:47:49.100Z,98.56
2022-08-22T03:48:49.101Z,98.56
2022-08-22T03:49:49.088Z,98.36
2022-08-22T03:50:49.081Z,98.56
2022-08-22T03:51:50.087Z,98.77
2022-08-22T03:52:49.052Z,98.86
2022-08-22T03:53:49.461Z,98.97
2022-08-22T03:54:49.039Z,98.97
2022-08-22T03:55:49.042Z,99.07
2022-08-22T03:56:49.005Z,99.07
2022-08-22T03:57:50.031Z,99.07
2022-08-22T03:58:48.983Z,99.02
2022-08-22T03:59:48.991Z,98.91
2022-08-22T04:00:49.044Z,98.81
2022-08-22T04:01:48.963Z,99.02
2022-08-22T04:02:48.982Z,99.22
2022-08-22T04:03:48.943Z,99.22
2022-08-22T04:04:48.924Z,99.22
2022-08-22T04:05:52.798Z,99.32
2022-08-22T04:06:48.916Z,99.42
2022-08-22T04:07:48.898Z,99.42
2022-08-22T04:08:48.889Z,99.32
2022-08-22T04:09:48.877Z,99.11
2022-08-22T04:10:48.854Z,99.11
2022-08-22T04:11:48.856Z,99.22
2022-08-22T04:12:48.869Z,99.83
2022-08-22T04:13:48.839Z,99.93
2022-08-22T04:14:48.808Z,99.52
2022-08-22T04:15:48.808Z,99.52
2022-08-22T04:16:48.788Z,99.73
2022-08-22T04:17:49.597Z,99.88
2022-08-22T04:18:48.759Z,99.88
2022-08-22T04:19:48.760Z,99.88
2022-08-22T04:20:48.751Z,99.98
2022-08-22T04:21:48.740Z,99.98
2022-08-22T04:22:48.731Z,99.88
2022-08-22T04:23:48.719Z,99.99
2022-08-22T04:24:52.477Z,99.99
2022-08-22T04:25:48.701Z,99.99
2022-08-22T04:26:48.682Z,99.99
2022-08-22T04:27:48.685Z,99.99
2022-08-22T04:28:48.663Z,99.98
2022-08-22T04:29:48.653Z,99.98
2022-08-22T04:30:48.642Z,99.99
2022-08-22T04:31:48.673Z,99.99
2022-08-22T04:32:48.614Z,99.99
2022-08-22T04:33:48.612Z,99.99
2022-08-22T04:34:48.608Z,99.99
2022-08-22T04:35:48.603Z,99.99
2022-08-22T04:36:48.574Z,99.99
2022-08-22T04:37:48.566Z,99.99
2022-08-22T04:38:48.595Z,99.99
2022-08-22T04:39:48.599Z,99.99
2022-08-22T04:40:48.545Z,99.99
2022-08-22T04:41:48.556Z,99.98
2022-08-22T04:42:48.507Z,99.88
2022-08-22T04:43:48.523Z,99.77
2022-08-22T04:44:48.488Z,99.88
2022-08-22T04:45:48.490Z,99.77
2022-08-22T04:46:48.476Z,99.88
2022-08-22T04:47:52.719Z,99.99
2022-08-22T04:48:50.267Z,99.99
2022-08-22T04:49:48.457Z,99.99
2022-08-22T04:50:48.419Z,99.99
2022-08-22T04:51:48.428Z,99.99
2022-08-22T04:52:48.400Z,99.99
2022-08-22T04:53:49.190Z,99.99
2022-08-22T04:54:48.381Z,99.99
2022-08-22T04:55:48.372Z,99.99
2022-08-22T04:56:48.368Z,99.99
2022-08-22T04:57:48.370Z,99.99
2022-08-22T04:58:48.334Z,99.99
2022-08-22T04:59:48.339Z,99.99
2022-08-22T05:00:48.319Z,99.99
2022-08-22T05:01:48.361Z,99.99
2022-08-22T05:02:48.352Z,99.99
2022-08-22T05:03:48.301Z,99.99
2022-08-22T05:04:48.274Z,99.99
2022-08-22T05:05:48.274Z,99.99
2022-08-22T05:06:48.263Z,99.99
2022-08-22T05:07:48.248Z,99.99
2022-08-22T05:08:48.408Z,99.99
2022-08-22T05:09:49.232Z,99.99
2022-08-22T05:10:48.206Z,99.99
2022-08-22T05:11:48.212Z,99.99
2022-08-22T05:12:48.185Z,99.99
2022-08-22T05:13:48.206Z,99.99
2022-08-22T05:14:48.168Z,99.99
2022-08-22T05:15:48.165Z,99.99
2022-08-22T05:16:48.144Z,99.99
2022-08-22T05:17:48.138Z,99.99
2022-08-22T05:18:48.137Z,99.99
2022-08-22T05:19:48.127Z,99.99
2022-08-22T05:20:49.087Z,99.99
2022-08-22T05:21:48.208Z,99.99
2022-08-22T05:22:48.079Z,99.99
2022-08-22T05:23:48.083Z,99.99
2022-08-22T05:24:48.089Z,99.99
2022-08-22T05:25:48.059Z,99.99
2022-08-22T05:26:48.051Z,99.99
2022-08-22T05:27:48.031Z,99.99
2022-08-22T05:28:52.899Z,99.99
2022-08-22T05:29:48.020Z,99.99
2022-08-22T05:30:47.991Z,99.99
2022-08-22T05:31:47.991Z,99.99
2022-08-22T05:32:47.972Z,99.99
2022-08-22T05:33:47.972Z,99.99
2022-08-22T05:34:47.953Z,99.99
2022-08-22T05:35:50.802Z,99.99
2022-08-22T05:36:47.932Z,99.99
2022-08-22T05:37:47.933Z,99.99
2022-08-22T05:38:47.903Z,99.99
2022-08-22T05:39:47.945Z,99.99
2022-08-22T05:40:47.896Z,99.55
2022-08-22T05:41:47.881Z,99.14
2022-08-22T05:42:47.864Z,99.14
2022-08-22T05:43:47.865Z,98.84
2022-08-22T05:44:47.845Z,98.43
2022-08-22T05:45:47.854Z,98.03
2022-08-22T05:46:47.816Z,98.13
2022-08-22T05:47:47.816Z,97.83
2022-08-22T05:48:47.798Z,97.98
2022-08-22T05:49:47.806Z,97.88
2022-08-22T05:50:50.825Z,97.78
2022-08-22T05:51:47.777Z,97.47
2022-08-22T05:52:47.757Z,97.38
2022-08-22T05:53:47.769Z,97.27
2022-08-22T05:54:47.729Z,97.07
2022-08-22T05:55:47.829Z,97.02
2022-08-22T05:56:47.716Z,96.92
2022-08-22T05:57:47.709Z,96.62
2022-08-22T05:58:47.690Z,96.92
2022-08-22T05:59:47.700Z,96.82
2022-08-22T06:00:47.675Z,95.76
2022-08-22T06:01:47.738Z,95.86
2022-08-22T06:02:48.458Z,94.65
2022-08-22T06:03:47.796Z,94.95
2022-08-22T06:04:47.630Z,93.43
2022-08-22T06:05:47.632Z,93.43
2022-08-22T06:06:47.610Z,92.79
2022-08-22T06:07:47.593Z,93.39
2022-08-22T06:08:47.590Z,92.99
2022-08-22T06:09:47.583Z,93.19
2022-08-22T06:10:48.262Z,92.48
2022-08-22T06:11:51.608Z,91.83
2022-08-22T06:12:47.547Z,92.44
2022-08-22T06:13:47.533Z,92.44
2022-08-22T06:14:47.514Z,92.13
2022-08-22T06:15:48.185Z,92.33
2022-08-22T06:16:48.845Z,91.53
2022-08-22T06:17:47.486Z,92.60
2022-08-22T06:18:47.497Z,91.89
2022-08-22T06:19:47.487Z,91.78
2022-08-22T06:20:47.455Z,92.40
2022-08-22T06:21:47.451Z,92.29
2022-08-22T06:22:47.427Z,92.40
2022-08-22T06:23:47.418Z,90.88
2022-08-22T06:24:47.407Z,90.88
2022-08-22T06:25:47.398Z,91.18
2022-08-22T06:26:48.926Z,88.75
2022-08-22T06:27:47.379Z,88.10
2022-08-22T06:28:55.035Z,88.71
2022-08-22T06:29:48.358Z,88.41
2022-08-22T06:30:47.340Z,87.70
2022-08-22T06:31:47.368Z,88.81
2022-08-22T06:32:59.298Z,88.87
2022-08-22T06:33:48.318Z,89.88
2022-08-22T06:34:47.303Z,89.48
2022-08-22T06:35:47.827Z,87.76
2022-08-22T06:36:47.297Z,86.55
2022-08-22T06:37:47.270Z,88.47
2022-08-22T06:38:47.254Z,87.92
2022-08-22T06:39:47.273Z,88.23
2022-08-22T06:40:47.234Z,88.12
2022-08-22T06:41:47.235Z,88.63
2022-08-22T06:42:47.216Z,87.62
2022-08-22T06:43:47.204Z,88.12
2022-08-22T06:44:47.297Z,88.23
2022-08-22T06:45:47.185Z,88.08
2022-08-22T06:46:47.175Z,86.27
2022-08-22T06:47:49.829Z,87.07
2022-08-22T06:48:47.146Z,85.05
2022-08-22T06:49:47.267Z,85.16
2022-08-22T06:50:47.125Z,85.46
2022-08-22T06:51:47.129Z,83.14
2022-08-22T06:52:47.107Z,84.75
2022-08-22T06:53:48.370Z,84.85
2022-08-22T06:54:47.083Z,85.31
2022-08-22T06:55:47.076Z,84.51
2022-08-22T06:56:47.060Z,85.42
2022-08-22T06:57:47.068Z,86.02
2022-08-22T06:58:47.040Z,87.54
2022-08-22T06:59:47.037Z,85.42
2022-08-22T07:00:58.796Z,86.08
2022-08-22T07:01:48.053Z,84.88
2022-08-22T07:02:46.999Z,84.27
2022-08-22T07:03:47.046Z,85.08
2022-08-22T07:04:46.971Z,84.77
2022-08-22T07:05:46.971Z,85.84
2022-08-22T07:06:46.964Z,85.03
2022-08-22T07:07:46.943Z,82.92
2022-08-22T07:08:47.753Z,81.91
2022-08-22T07:09:46.924Z,82.11
2022-08-22T07:10:46.910Z,81.47
2022-08-22T07:11:47.003Z,82.88
2022-08-22T07:12:47.023Z,83.18
2022-08-22T07:13:46.887Z,81.67
2022-08-22T07:14:46.874Z,82.78
2022-08-22T07:15:46.863Z,83.28
2022-08-22T07:16:46.854Z,81.57
2022-08-22T07:17:46.864Z,80.73
2022-08-22T07:18:46.819Z,80.93
2022-08-22T07:19:47.626Z,83.04
2022-08-22T07:20:46.811Z,82.04
2022-08-22T07:21:46.798Z,80.93
2022-08-22T07:22:46.798Z,80.73
2022-08-22T07:23:46.879Z,82.44
2022-08-22T07:24:46.759Z,82.90
2022-08-22T07:25:46.763Z,81.09
2022-08-22T07:26:46.740Z,80.49
2022-08-22T07:27:48.967Z,80.58
2022-08-22T07:28:51.120Z,78.84
2022-08-22T07:29:47.728Z,78.14
2022-08-22T07:30:46.690Z,78.74
2022-08-22T07:31:46.702Z,78.54
2022-08-22T07:32:46.670Z,77.90
2022-08-22T07:33:46.913Z,78.80
2022-08-22T07:34:46.652Z,78.80
2022-08-22T07:35:53.438Z,79.81
2022-08-22T07:36:47.631Z,76.96
2022-08-22T07:37:46.625Z,77.56
2022-08-22T07:38:46.745Z,76.45
2022-08-22T07:39:46.670Z,77.52
2022-08-22T07:40:46.592Z,77.62
2022-08-22T07:41:46.581Z,77.62
2022-08-22T07:42:47.659Z,76.52
2022-08-22T07:43:46.567Z,75.82
2022-08-22T07:44:46.555Z,77.52
2022-08-22T07:45:46.545Z,75.78
2022-08-22T07:46:46.540Z,77.09
2022-08-22T07:47:49.637Z,74.48
2022-08-22T07:49:06.165Z,75.18
2022-08-22T07:49:49.618Z,75.74
2022-08-22T07:50:46.512Z,75.84
2022-08-22T07:51:46.477Z,74.14
2022-08-22T07:52:46.479Z,76.25
2022-08-22T07:53:46.449Z,74.40
2022-08-22T07:54:46.437Z,72.90
2022-08-22T07:55:49.452Z,73.40
2022-08-22T07:56:46.439Z,74.60
2022-08-22T07:57:46.408Z,74.30
2022-08-22T07:58:46.394Z,72.56
2022-08-22T07:59:46.381Z,72.27
2022-08-22T08:00:46.770Z,72.16
2022-08-22T08:01:46.411Z,72.93
2022-08-22T08:02:46.351Z,73.33
2022-08-22T08:03:46.333Z,72.83
2022-08-22T08:04:46.323Z,71.03
2022-08-22T08:05:46.320Z,71.43
2022-08-22T08:06:46.301Z,71.93
2022-08-22T08:07:46.324Z,72.23
2022-08-22T08:08:46.276Z,71.63
2022-08-22T08:09:46.267Z,73.23
2022-08-22T08:10:46.266Z,71.53
2022-08-22T08:11:46.248Z,71.89
2022-08-22T08:12:58.005Z,72.16
2022-08-22T08:13:47.227Z,71.56
2022-08-22T08:14:46.218Z,69.86
2022-08-22T08:15:46.205Z,69.26
2022-08-22T08:16:46.198Z,70.66
2022-08-22T08:17:46.188Z,70.56
2022-08-22T08:18:46.178Z,70.09
2022-08-22T08:19:46.179Z,70.39
2022-08-22T08:20:46.161Z,70.29
2022-08-22T08:21:46.140Z,70.50
2022-08-22T08:22:46.149Z,71.09
2022-08-22T08:23:46.120Z,70.89
2022-08-22T08:24:46.922Z,71.89
2022-08-22T08:25:46.120Z,71.30
2022-08-22T08:26:46.092Z,72.76
2022-08-22T08:27:50.301Z,69.36
2022-08-22T08:28:47.210Z,68.76
2022-08-22T08:29:46.052Z,69.86
2022-08-22T08:30:46.059Z,71.19
2022-08-22T08:31:46.035Z,72.66
2022-08-22T08:32:46.034Z,72.72
2022-08-22T08:33:46.825Z,70.73
2022-08-22T08:34:46.008Z,72.39
2022-08-22T08:36:02.540Z,70.19
2022-08-22T08:36:46.987Z,69.96
2022-08-22T08:37:46.096Z,69.32
2022-08-22T08:38:45.976Z,68.79
2022-08-22T08:39:45.970Z,69.39
2022-08-22T08:40:45.938Z,70.36
2022-08-22T08:41:45.928Z,68.76
2022-08-22T08:42:45.950Z,69.43
2022-08-22T08:43:45.918Z,67.93
2022-08-22T08:44:45.897Z,69.73
2022-08-22T08:45:45.879Z,67.93
2022-08-22T08:46:51.805Z,67.10
2022-08-22T08:47:46.860Z,66.60
2022-08-22T08:48:45.860Z,66.10
2022-08-22T08:49:45.866Z,68.10
2022-08-22T08:50:45.854Z,67.80
2022-08-22T08:51:45.818Z,65.27
2022-08-22T08:52:48.181Z,67.17
2022-08-22T08:53:46.802Z,66.87
2022-08-22T08:54:45.790Z,66.83
2022-08-22T08:55:45.801Z,63.75
2022-08-22T08:56:47.285Z,64.34
2022-08-22T08:57:45.744Z,64.25
2022-08-22T08:58:45.744Z,63.65
2022-08-22T08:59:45.736Z,64.64
2022-08-22T09:00:45.850Z,64.34
2022-08-22T09:01:45.781Z,65.44
2022-08-22T09:02:45.704Z,64.04
2022-08-22T09:03:45.686Z,63.72
2022-08-22T09:04:45.675Z,63.02
2022-08-22T09:05:46.473Z,64.42
2022-08-22T09:06:52.691Z,63.32
2022-08-22T09:07:46.646Z,62.72
2022-08-22T09:08:45.638Z,63.72
2022-08-22T09:09:45.628Z,63.79
2022-08-22T09:10:46.618Z,62.23
2022-08-22T09:11:45.600Z,62.05
2022-08-22T09:13:46.587Z,61.72
2022-08-22T09:14:45.873Z,63.79
2022-08-22T09:15:58.516Z,61.20
2022-08-22T09:17:46.552Z,60.24
2022-08-22T09:18:45.731Z,61.46
2022-08-22T09:19:45.521Z,62.18
2022-08-22T09:20:45.512Z,65.67
2022-08-22T09:21:45.502Z,64.28
2022-08-22T09:22:50.596Z,65.05
2022-08-22T09:23:46.575Z,64.72
2022-08-22T09:24:46.482Z,61.72
2022-08-22T09:25:45.453Z,59.86
2022-08-22T09:26:45.453Z,62.91
2022-08-22T09:27:45.463Z,62.01
2022-08-22T09:28:45.425Z,61.91
2022-08-22T09:29:54.447Z,64.71
2022-08-22T09:30:46.414Z,63.08
2022-08-22T09:31:48.182Z,62.21
2022-08-22T09:32:46.389Z,64.58
2022-08-22T09:33:45.455Z,63.85
2022-08-22T09:34:45.358Z,61.76
2022-08-22T09:35:45.349Z,63.55
2022-08-22T09:36:45.339Z,62.65
2022-08-22T09:37:45.328Z,63.52
2022-08-22T09:38:47.713Z,63.39
2022-08-22T09:39:45.319Z,62.59
2022-08-22T09:40:16.254Z,62.10
2022-08-22T09:40:45.290Z,62.79
2022-08-22T09:41:45.281Z,61.07
2022-08-22T09:42:46.438Z,58.58
2022-08-22T09:43:48.604Z,58.56
2022-08-22T09:44:45.252Z,58.86
2022-08-22T09:45:45.240Z,58.36
2022-08-22T09:46:45.232Z,58.53
2022-08-22T09:47:45.216Z,58.13
2022-08-22T09:48:45.212Z,57.73
2022-08-22T09:49:45.294Z,59.12
2022-08-22T09:50:45.216Z,58.80
2022-08-22T09:51:45.174Z,61.48
2022-08-22T09:52:45.176Z,60.39
2022-08-22T09:53:45.147Z,60.69
2022-08-22T09:54:45.147Z,60.96
2022-08-22T09:55:45.148Z,57.68
2022-08-22T09:56:45.128Z,57.98
2022-08-22T09:57:45.127Z,57.58
2022-08-22T09:58:45.100Z,56.88
2022-08-22T09:59:45.087Z,57.18
2022-08-22T10:00:45.186Z,57.98
2022-08-22T10:01:45.071Z,56.78
2022-08-22T10:02:45.059Z,59.07
2022-08-22T10:03:46.069Z,57.38
2022-08-22T10:04:45.170Z,56.09
2022-08-22T10:05:45.116Z,56.21
2022-08-22T10:06:45.013Z,56.94
2022-08-22T10:07:45.002Z,57.04
2022-08-22T10:08:46.239Z,58.53
2022-08-22T10:09:46.338Z,57.24
2022-08-22T10:10:44.973Z,58.00
2022-08-22T10:11:44.963Z,57.90
2022-08-22T10:12:44.955Z,57.21
2022-08-22T10:13:44.938Z,56.61
2022-08-22T10:14:50.417Z,56.98
2022-08-22T10:15:45.914Z,59.17
2022-08-22T10:16:44.964Z,57.45
2022-08-22T10:17:44.907Z,58.74
2022-08-22T10:18:53.859Z,58.81
2022-08-22T10:19:45.867Z,58.69
2022-08-22T10:20:44.867Z,57.20
2022-08-22T10:21:44.857Z,58.09
2022-08-22T10:22:44.848Z,59.38
2022-08-22T10:23:45.907Z,60.37
2022-08-22T10:24:44.828Z,58.09
2022-08-22T10:25:44.811Z,57.00
2022-08-22T10:26:44.811Z,56.80
2022-08-22T10:27:45.131Z,56.70
2022-08-22T10:28:44.789Z,58.09
2022-08-22T10:29:44.771Z,59.38
2022-08-22T10:30:44.790Z,58.39
2022-08-22T10:31:58.580Z,59.45
2022-08-22T10:32:45.744Z,59.18
2022-08-22T10:33:44.727Z,56.70
2022-08-22T10:34:45.525Z,56.80
2022-08-22T10:35:44.715Z,55.21
2022-08-22T10:36:44.704Z,55.32
2022-08-22T10:37:45.925Z,55.34
2022-08-22T10:38:46.929Z,56.11
2022-08-22T10:39:44.710Z,54.82
2022-08-22T10:40:44.687Z,55.81
2022-08-22T10:41:45.534Z,57.69
2022-08-22T10:42:44.638Z,55.61
2022-08-22T10:43:44.619Z,56.43
2022-08-22T10:44:44.629Z,56.56
2022-08-22T10:45:44.606Z,58.04
2022-08-22T10:46:44.607Z,59.53
2022-08-22T10:47:44.588Z,57.45
2022-08-22T10:48:44.570Z,56.88
2022-08-22T10:49:44.571Z,58.77
2022-08-22T10:50:44.566Z,57.38
2022-08-22T10:51:44.540Z,56.66
2022-08-22T10:52:44.541Z,61.45
2022-08-22T10:53:44.522Z,61.55
2022-08-22T10:54:44.648Z,61.05
2022-08-22T10:55:44.515Z,60.66
2022-08-22T10:56:44.490Z,59.86
2022-08-22T10:57:44.472Z,59.53
2022-08-22T10:58:44.592Z,59.74
2022-08-22T10:59:44.475Z,58.74
2022-08-22T11:00:46.097Z,60.70
2022-08-22T11:01:44.463Z,61.46
2022-08-22T11:02:44.900Z,60.47
2022-08-22T11:03:44.460Z,59.78
2022-08-22T11:04:44.924Z,58.78
2022-08-22T11:05:44.461Z,58.56
2022-08-22T11:06:45.387Z,58.48
2022-08-22T11:07:44.572Z,59.55
2022-08-22T11:08:44.374Z,59.22
2022-08-22T11:09:44.349Z,60.51
2022-08-22T11:10:44.359Z,58.80
2022-08-22T11:11:44.332Z,56.92
2022-08-22T11:12:44.492Z,57.78
2022-08-22T11:13:44.321Z,57.09
2022-08-22T11:14:44.781Z,55.70
2022-08-22T11:15:44.289Z,56.69
2022-08-22T11:16:44.312Z,57.26
2022-08-22T11:17:54.130Z,59.73
2022-08-22T11:18:58.036Z,58.54
2022-08-22T11:19:45.248Z,60.19
2022-08-22T11:20:44.242Z,57.35
2022-08-22T11:21:44.262Z,58.97
2022-08-22T11:22:44.224Z,57.85
2022-08-22T11:23:44.205Z,57.26
2022-08-22T11:24:46.635Z,59.04
2022-08-22T11:25:45.197Z,56.14
2022-08-22T11:26:47.671Z,57.73
2022-08-22T11:27:44.168Z,57.50
2022-08-22T11:28:44.157Z,57.37
2022-08-22T11:29:44.262Z,56.38
2022-08-22T11:30:44.939Z,54.31
2022-08-22T11:31:47.178Z,55.47
2022-08-22T11:32:45.119Z,55.27
2022-08-22T11:33:46.950Z,54.21
2022-08-22T11:34:44.829Z,52.83
2022-08-22T11:35:44.080Z,52.46
2022-08-22T11:36:46.386Z,54.86
2022-08-22T11:37:44.098Z,54.59
2022-08-22T11:38:44.050Z,54.52
2022-08-22T11:39:44.076Z,55.51
2022-08-22T11:40:44.033Z,57.65
2022-08-22T11:41:44.021Z,57.35
2022-08-22T11:42:47.398Z,59.60
2022-08-22T11:43:44.005Z,55.82
2022-08-22T11:44:50.956Z,59.08
2022-08-22T11:45:44.972Z,56.98
2022-08-22T11:46:43.964Z,54.97
2022-08-22T11:47:43.955Z,55.47
2022-08-22T11:48:47.374Z,53.62
2022-08-22T11:49:43.966Z,53.77
2022-08-22T11:50:44.021Z,46.08
2022-08-22T11:51:43.906Z,46.42
2022-08-22T11:52:43.903Z,49.19
2022-08-22T11:53:44.889Z,52.46
2022-08-22T11:54:43.878Z,52.64
2022-08-22T11:55:43.908Z,49.84
2022-08-22T11:56:45.170Z,52.31
2022-08-22T11:57:44.395Z,49.22
2022-08-22T11:58:43.860Z,43.37
2022-08-22T11:59:43.821Z,42.56
2022-08-22T12:00:43.819Z,42.74
2022-08-22T12:01:43.836Z,41.36
2022-08-22T12:02:43.793Z,41.63
2022-08-22T12:03:43.781Z,45.38
2022-08-22T12:04:44.101Z,39.36
2022-08-22T12:05:43.766Z,40.45
2022-08-22T12:06:43.763Z,43.52
2022-08-22T12:07:47.425Z,41.06
2022-08-22T12:08:44.732Z,41.36
2022-08-22T12:09:43.716Z,45.20
2022-08-22T12:10:43.707Z,39.99
2022-08-22T12:11:43.708Z,44.36
2022-08-22T12:12:43.687Z,45.76
2022-08-22T12:13:43.676Z,45.67
2022-08-22T12:14:43.675Z,43.91
2022-08-22T12:15:43.657Z,43.51
2022-08-22T12:16:45.162Z,42.13
2022-08-22T12:17:55.896Z,44.90
2022-08-22T12:18:45.082Z,45.57
2022-08-22T12:20:05.759Z,42.38
2022-08-22T12:20:45.370Z,46.63
2022-08-22T12:21:43.588Z,43.71
2022-08-22T12:22:44.441Z,45.19
2022-08-22T12:23:49.289Z,44.50
2022-08-22T12:24:44.552Z,47.34
2022-08-22T12:25:44.551Z,43.10
2022-08-22T12:26:43.541Z,46.88
2022-08-22T12:27:48.178Z,51.70
2022-08-22T12:28:44.513Z,47.84
2022-08-22T12:29:44.904Z,44.82
2022-08-22T12:30:43.493Z,42.19
2022-08-22T12:31:43.488Z,45.45
2022-08-22T12:32:44.016Z,43.97
2022-08-22T12:33:43.462Z,45.23
2022-08-22T12:34:43.447Z,48.08
2022-08-22T12:35:43.456Z,44.72
2022-08-22T12:36:43.427Z,47.27
2022-08-22T12:37:53.184Z,45.09
2022-08-22T12:38:44.409Z,45.79
2022-08-22T12:39:43.485Z,46.58
2022-08-22T12:40:43.780Z,43.93
2022-08-22T12:41:46.498Z,42.54
2022-08-22T12:42:43.366Z,44.64
2022-08-22T12:43:43.384Z,44.27
2022-08-22T12:44:43.402Z,43.70
2022-08-22T12:45:43.331Z,44.53
2022-08-22T12:46:47.193Z,47.05
2022-08-22T12:47:43.337Z,49.38
2022-08-22T12:48:43.295Z,49.88
2022-08-22T12:49:49.818Z,46.46